sensor_id;sensor_type;location;lat;lon;timestamp;pressure;altitude;pressure_sealevel;temperature;humidity
10176;BME280;18221;38.704;0.152;2023-03-19T00:02:35;98861.81;;;18.23;42.25
10176;BME280;18221;38.704;0.152;2023-03-19T00:05:05;98871.91;;;18.21;42.05
10176;BME280;18221;38.704;0.152;2023-03-19T00:07:33;98865.69;;;18.20;42.19
10176;BME280;18221;38.704;0.152;2023-03-19T00:10:02;98862.06;;;18.28;41.75
10176;BME280;18221;38.704;0.152;2023-03-19T00:12:31;98862.13;;;18.34;41.30
10176;BME280;18221;38.704;0.152;2023-03-19T00:14:59;98856.75;;;18.13;41.35
10176;BME280;18221;38.704;0.152;2023-03-19T00:17:27;98859.56;;;18.05;41.34
10176;BME280;18221;38.704;0.152;2023-03-19T00:19:58;98862.50;;;18.10;41.02
10176;BME280;18221;38.704;0.152;2023-03-19T00:22:26;98863.09;;;18.06;40.59
10176;BME280;18221;38.704;0.152;2023-03-19T00:24:54;98866.66;;;18.13;40.27
10176;BME280;18221;38.704;0.152;2023-03-19T00:27:23;98861.09;;;17.93;40.28
10176;BME280;18221;38.704;0.152;2023-03-19T00:29:51;98873.47;;;17.94;39.97
10176;BME280;18221;38.704;0.152;2023-03-19T00:32:20;98868.69;;;17.89;39.88
10176;BME280;18221;38.704;0.152;2023-03-19T00:34:48;98870.91;;;17.86;39.67
10176;BME280;18221;38.704;0.152;2023-03-19T00:37:18;98871.31;;;18.04;39.34
10176;BME280;18221;38.704;0.152;2023-03-19T00:39:47;98872.09;;;17.98;39.57
10176;BME280;18221;38.704;0.152;2023-03-19T00:42:15;98864.25;;;17.82;39.66
10176;BME280;18221;38.704;0.152;2023-03-19T00:44:44;98868.63;;;17.68;39.78
10176;BME280;18221;38.704;0.152;2023-03-19T00:47:12;98869.00;;;17.80;39.92
10176;BME280;18221;38.704;0.152;2023-03-19T00:49:41;98871.31;;;17.83;39.79
10176;BME280;18221;38.704;0.152;2023-03-19T00:52:09;98873.78;;;17.84;39.82
10176;BME280;18221;38.704;0.152;2023-03-19T00:54:39;98880.16;;;17.98;39.95
10176;BME280;18221;38.704;0.152;2023-03-19T00:57:08;98866.38;;;17.86;40.42
10176;BME280;18221;38.704;0.152;2023-03-19T00:59:37;98878.78;;;17.87;40.59
10176;BME280;18221;38.704;0.152;2023-03-19T01:02:07;98871.00;;;17.93;40.53
10176;BME280;18221;38.704;0.152;2023-03-19T01:04:36;98869.03;;;18.01;40.11
10176;BME280;18221;38.704;0.152;2023-03-19T01:07:04;98876.28;;;17.86;40.78
10176;BME280;18221;38.704;0.152;2023-03-19T01:09:33;98878.84;;;17.94;41.00
10176;BME280;18221;38.704;0.152;2023-03-19T01:12:05;98877.66;;;17.97;40.98
10176;BME280;18221;38.704;0.152;2023-03-19T01:14:34;98876.09;;;17.87;41.42
10176;BME280;18221;38.704;0.152;2023-03-19T01:17:02;98877.91;;;17.80;41.70
10176;BME280;18221;38.704;0.152;2023-03-19T01:19:31;98879.47;;;17.75;42.17
10176;BME280;18221;38.704;0.152;2023-03-19T01:21:59;98877.06;;;17.80;41.87
10176;BME280;18221;38.704;0.152;2023-03-19T01:24:30;98867.81;;;17.68;42.10
10176;BME280;18221;38.704;0.152;2023-03-19T01:26:59;98875.22;;;17.66;42.29
10176;BME280;18221;38.704;0.152;2023-03-19T01:29:29;98874.38;;;17.65;42.15
10176;BME280;18221;38.704;0.152;2023-03-19T01:31:57;98879.69;;;17.59;42.31
10176;BME280;18221;38.704;0.152;2023-03-19T01:34:25;98885.06;;;17.59;42.38
10176;BME280;18221;38.704;0.152;2023-03-19T01:36:54;98879.94;;;17.64;41.88
10176;BME280;18221;38.704;0.152;2023-03-19T01:39:22;98878.66;;;17.60;41.26
10176;BME280;18221;38.704;0.152;2023-03-19T01:41:52;98876.06;;;17.66;40.78
10176;BME280;18221;38.704;0.152;2023-03-19T01:44:25;98873.38;;;17.52;40.58
10176;BME280;18221;38.704;0.152;2023-03-19T01:46:57;98875.53;;;17.56;40.81
10176;BME280;18221;38.704;0.152;2023-03-19T01:49:27;98873.38;;;17.66;40.37
10176;BME280;18221;38.704;0.152;2023-03-19T01:51:59;98868.75;;;17.75;39.78
10176;BME280;18221;38.704;0.152;2023-03-19T01:54:31;98869.94;;;17.72;39.49
10176;BME280;18221;38.704;0.152;2023-03-19T01:57:07;98871.78;;;17.72;39.78
10176;BME280;18221;38.704;0.152;2023-03-19T01:59:40;98863.84;;;17.64;39.25
10176;BME280;18221;38.704;0.152;2023-03-19T02:02:17;98860.22;;;17.71;38.85
10176;BME280;18221;38.704;0.152;2023-03-19T02:04:55;98860.47;;;17.76;38.90
10176;BME280;18221;38.704;0.152;2023-03-19T02:07:25;98856.94;;;17.76;38.90
10176;BME280;18221;38.704;0.152;2023-03-19T02:09:54;98860.16;;;17.65;38.80
10176;BME280;18221;38.704;0.152;2023-03-19T02:12:23;98852.63;;;17.75;38.72
10176;BME280;18221;38.704;0.152;2023-03-19T02:14:52;98859.84;;;17.74;38.67
10176;BME280;18221;38.704;0.152;2023-03-19T02:17:23;98853.19;;;17.92;38.16
10176;BME280;18221;38.704;0.152;2023-03-19T02:19:57;98846.63;;;17.94;38.07
10176;BME280;18221;38.704;0.152;2023-03-19T02:22:31;98842.66;;;17.90;38.06
10176;BME280;18221;38.704;0.152;2023-03-19T02:25:06;98842.66;;;17.90;37.38
10176;BME280;18221;38.704;0.152;2023-03-19T02:27:39;98842.19;;;17.86;36.72
10176;BME280;18221;38.704;0.152;2023-03-19T02:30:25;98840.03;;;17.97;35.94
10176;BME280;18221;38.704;0.152;2023-03-19T02:32:56;98842.34;;;18.00;35.40
10176;BME280;18221;38.704;0.152;2023-03-19T02:35:26;98847.97;;;18.05;34.54
10176;BME280;18221;38.704;0.152;2023-03-19T02:37:59;98848.56;;;18.21;34.59
10176;BME280;18221;38.704;0.152;2023-03-19T02:40:34;98846.13;;;18.26;34.14
10176;BME280;18221;38.704;0.152;2023-03-19T02:43:05;98840.75;;;18.26;33.94
10176;BME280;18221;38.704;0.152;2023-03-19T02:45:33;98847.84;;;18.34;33.64
10176;BME280;18221;38.704;0.152;2023-03-19T02:48:02;98842.63;;;18.47;33.53
10176;BME280;18221;38.704;0.152;2023-03-19T02:50:30;98841.66;;;18.55;33.40
10176;BME280;18221;38.704;0.152;2023-03-19T02:52:59;98845.13;;;18.48;33.30
10176;BME280;18221;38.704;0.152;2023-03-19T02:55:28;98837.59;;;18.44;33.14
10176;BME280;18221;38.704;0.152;2023-03-19T02:57:56;98845.88;;;18.42;33.14
10176;BME280;18221;38.704;0.152;2023-03-19T03:00:26;98840.00;;;18.32;33.08
10176;BME280;18221;38.704;0.152;2023-03-19T03:02:56;98833.03;;;18.38;33.04
10176;BME280;18221;38.704;0.152;2023-03-19T03:05:25;98840.88;;;18.39;32.62
10176;BME280;18221;38.704;0.152;2023-03-19T03:07:53;98828.97;;;18.48;32.64
10176;BME280;18221;38.704;0.152;2023-03-19T03:10:22;98828.06;;;18.41;32.12
10176;BME280;18221;38.704;0.152;2023-03-19T03:12:51;98834.88;;;18.37;32.14
10176;BME280;18221;38.704;0.152;2023-03-19T03:15:20;98831.72;;;18.34;32.15
10176;BME280;18221;38.704;0.152;2023-03-19T03:17:50;98830.88;;;18.33;32.18
10176;BME280;18221;38.704;0.152;2023-03-19T03:20:19;98832.09;;;18.31;32.32
10176;BME280;18221;38.704;0.152;2023-03-19T03:22:48;98834.53;;;18.26;32.20
10176;BME280;18221;38.704;0.152;2023-03-19T03:25:17;98832.94;;;18.31;32.13
10176;BME280;18221;38.704;0.152;2023-03-19T03:27:45;98840.50;;;18.42;31.90
10176;BME280;18221;38.704;0.152;2023-03-19T03:30:14;98836.53;;;18.17;32.10
10176;BME280;18221;38.704;0.152;2023-03-19T03:32:43;98836.22;;;18.27;32.10
10176;BME280;18221;38.704;0.152;2023-03-19T03:35:14;98840.50;;;18.42;31.86
10176;BME280;18221;38.704;0.152;2023-03-19T03:37:47;98847.22;;;18.32;31.93
10176;BME280;18221;38.704;0.152;2023-03-19T03:40:16;98853.44;;;18.32;31.87
10176;BME280;18221;38.704;0.152;2023-03-19T03:42:45;98860.16;;;18.22;31.71
10176;BME280;18221;38.704;0.152;2023-03-19T03:45:13;98859.31;;;18.42;31.71
10176;BME280;18221;38.704;0.152;2023-03-19T03:47:42;98859.81;;;18.31;31.75
10176;BME280;18221;38.704;0.152;2023-03-19T03:50:12;98864.63;;;18.36;31.74
10176;BME280;18221;38.704;0.152;2023-03-19T03:52:41;98859.94;;;18.23;31.81
10176;BME280;18221;38.704;0.152;2023-03-19T03:55:10;98866.34;;;18.43;31.54
10176;BME280;18221;38.704;0.152;2023-03-19T03:57:39;98858.56;;;18.27;31.64
10176;BME280;18221;38.704;0.152;2023-03-19T04:00:09;98863.97;;;18.13;31.67
10176;BME280;18221;38.704;0.152;2023-03-19T04:02:38;98868.72;;;18.11;31.50
10176;BME280;18221;38.704;0.152;2023-03-19T04:05:07;98872.88;;;18.13;31.52
10176;BME280;18221;38.704;0.152;2023-03-19T04:07:38;98876.16;;;18.09;31.48
10176;BME280;18221;38.704;0.152;2023-03-19T04:10:08;98875.34;;;18.15;31.47
10176;BME280;18221;38.704;0.152;2023-03-19T04:12:37;98870.53;;;17.89;31.63
10176;BME280;18221;38.704;0.152;2023-03-19T04:15:10;98878.59;;;17.89;31.77
10176;BME280;18221;38.704;0.152;2023-03-19T04:17:38;98883.34;;;17.87;31.87
10176;BME280;18221;38.704;0.152;2023-03-19T04:20:09;98884.34;;;17.86;31.88
10176;BME280;18221;38.704;0.152;2023-03-19T04:22:39;98893.34;;;17.93;31.74
10176;BME280;18221;38.704;0.152;2023-03-19T04:25:09;98897.25;;;17.76;32.03
10176;BME280;18221;38.704;0.152;2023-03-19T04:27:37;98888.66;;;17.66;32.13
10176;BME280;18221;38.704;0.152;2023-03-19T04:30:07;98898.22;;;17.54;32.40
10176;BME280;18221;38.704;0.152;2023-03-19T04:32:37;98904.84;;;17.58;32.44
10176;BME280;18221;38.704;0.152;2023-03-19T04:35:06;98903.56;;;17.54;32.48
10176;BME280;18221;38.704;0.152;2023-03-19T04:37:35;98909.13;;;17.67;31.99
10176;BME280;18221;38.704;0.152;2023-03-19T04:40:08;98915.22;;;17.61;32.07
10176;BME280;18221;38.704;0.152;2023-03-19T04:42:36;98927.06;;;17.52;32.44
10176;BME280;18221;38.704;0.152;2023-03-19T04:45:06;98930.06;;;17.57;32.43
10176;BME280;18221;38.704;0.152;2023-03-19T04:47:35;98939.03;;;17.64;32.68
10176;BME280;18221;38.704;0.152;2023-03-19T04:50:07;98926.50;;;17.71;32.58
10176;BME280;18221;38.704;0.152;2023-03-19T04:52:36;98944.84;;;17.53;33.07
10176;BME280;18221;38.704;0.152;2023-03-19T04:55:08;98947.53;;;17.53;33.36
10176;BME280;18221;38.704;0.152;2023-03-19T04:57:36;98947.66;;;17.59;33.57
10176;BME280;18221;38.704;0.152;2023-03-19T05:00:06;98944.28;;;17.57;33.47
10176;BME280;18221;38.704;0.152;2023-03-19T05:02:35;98941.31;;;17.38;34.01
10176;BME280;18221;38.704;0.152;2023-03-19T05:05:04;98945.94;;;17.44;34.35
10176;BME280;18221;38.704;0.152;2023-03-19T05:07:33;98953.03;;;17.59;34.24
10176;BME280;18221;38.704;0.152;2023-03-19T05:10:02;98957.56;;;17.59;34.31
10176;BME280;18221;38.704;0.152;2023-03-19T05:12:32;98963.28;;;17.56;34.21
10176;BME280;18221;38.704;0.152;2023-03-19T05:15:01;98966.53;;;17.66;34.14
10176;BME280;18221;38.704;0.152;2023-03-19T05:17:31;98967.72;;;17.49;34.65
10176;BME280;18221;38.704;0.152;2023-03-19T05:20:01;98970.63;;;17.39;34.68
10176;BME280;18221;38.704;0.152;2023-03-19T05:22:31;98975.19;;;17.39;34.74
10176;BME280;18221;38.704;0.152;2023-03-19T05:25:00;98976.63;;;17.64;34.60
10176;BME280;18221;38.704;0.152;2023-03-19T05:27:28;98980.66;;;17.45;34.59
10176;BME280;18221;38.704;0.152;2023-03-19T05:29:58;98981.34;;;17.62;34.84
10176;BME280;18221;38.704;0.152;2023-03-19T05:32:27;98990.97;;;17.56;34.97
10176;BME280;18221;38.704;0.152;2023-03-19T05:34:56;98985.03;;;17.75;34.72
10176;BME280;18221;38.704;0.152;2023-03-19T05:37:25;98976.63;;;17.64;35.05
10176;BME280;18221;38.704;0.152;2023-03-19T05:39:54;98983.34;;;17.45;35.28
10176;BME280;18221;38.704;0.152;2023-03-19T05:42:23;98994.50;;;17.34;35.25
10176;BME280;18221;38.704;0.152;2023-03-19T05:44:52;99001.66;;;17.42;35.15
10176;BME280;18221;38.704;0.152;2023-03-19T05:47:22;99006.25;;;17.56;35.04
10176;BME280;18221;38.704;0.152;2023-03-19T05:49:50;99012.25;;;17.58;35.08
10176;BME280;18221;38.704;0.152;2023-03-19T05:52:19;99009.81;;;17.48;35.07
10176;BME280;18221;38.704;0.152;2023-03-19T05:54:47;99012.84;;;17.31;35.35
10176;BME280;18221;38.704;0.152;2023-03-19T05:57:16;99021.06;;;17.29;35.71
10176;BME280;18221;38.704;0.152;2023-03-19T05:59:45;99024.53;;;17.38;35.36
10176;BME280;18221;38.704;0.152;2023-03-19T06:02:13;99022.19;;;17.35;35.46
10176;BME280;18221;38.704;0.152;2023-03-19T06:04:43;99031.84;;;17.44;35.27
10176;BME280;18221;38.704;0.152;2023-03-19T06:07:12;99030.66;;;17.46;35.08
10176;BME280;18221;38.704;0.152;2023-03-19T06:09:40;99033.06;;;17.41;35.02
10176;BME280;18221;38.704;0.152;2023-03-19T06:12:09;99045.00;;;17.39;35.35
10176;BME280;18221;38.704;0.152;2023-03-19T06:14:38;99049.50;;;17.61;35.06
10176;BME280;18221;38.704;0.152;2023-03-19T06:17:06;99046.16;;;17.59;35.17
10176;BME280;18221;38.704;0.152;2023-03-19T06:19:35;99058.34;;;17.47;35.58
10176;BME280;18221;38.704;0.152;2023-03-19T06:22:05;99066.44;;;17.61;35.45
10176;BME280;18221;38.704;0.152;2023-03-19T06:24:33;99060.47;;;17.51;35.68
10176;BME280;18221;38.704;0.152;2023-03-19T06:27:02;99059.75;;;17.57;35.95
10176;BME280;18221;38.704;0.152;2023-03-19T06:29:31;99063.75;;;17.61;35.95
10176;BME280;18221;38.704;0.152;2023-03-19T06:32:00;99072.91;;;17.29;36.29
10176;BME280;18221;38.704;0.152;2023-03-19T06:34:28;99080.69;;;17.39;36.41
10176;BME280;18221;38.704;0.152;2023-03-19T06:36:57;99086.25;;;17.38;36.58
10176;BME280;18221;38.704;0.152;2023-03-19T06:39:27;99076.22;;;17.32;36.43
10176;BME280;18221;38.704;0.152;2023-03-19T06:41:55;99084.78;;;17.12;36.97
10176;BME280;18221;38.704;0.152;2023-03-19T06:44:24;99089.94;;;17.37;36.40
10176;BME280;18221;38.704;0.152;2023-03-19T06:46:52;99096.50;;;17.34;36.60
10176;BME280;18221;38.704;0.152;2023-03-19T06:49:21;99102.72;;;17.35;36.99
10176;BME280;18221;38.704;0.152;2023-03-19T06:51:49;99110.72;;;17.43;36.60
10176;BME280;18221;38.704;0.152;2023-03-19T06:54:21;99115.34;;;17.26;37.05
10176;BME280;18221;38.704;0.152;2023-03-19T06:56:51;99126.59;;;17.29;36.98
10176;BME280;18221;38.704;0.152;2023-03-19T06:59:20;99127.31;;;17.46;36.91
10176;BME280;18221;38.704;0.152;2023-03-19T07:01:48;99128.53;;;17.13;38.50
10176;BME280;18221;38.704;0.152;2023-03-19T07:04:17;99134.69;;;17.21;38.53
10176;BME280;18221;38.704;0.152;2023-03-19T07:06:47;99135.41;;;17.15;38.53
10176;BME280;18221;38.704;0.152;2023-03-19T07:09:15;99144.53;;;17.29;38.43
10176;BME280;18221;38.704;0.152;2023-03-19T07:11:44;99150.91;;;17.05;40.39
10176;BME280;18221;38.704;0.152;2023-03-19T07:14:14;99151.19;;;17.10;40.49
10176;BME280;18221;38.704;0.152;2023-03-19T07:16:42;99157.59;;;17.32;40.25
10176;BME280;18221;38.704;0.152;2023-03-19T07:19:11;99155.56;;;17.34;39.82
10176;BME280;18221;38.704;0.152;2023-03-19T07:21:39;99165.16;;;17.28;39.75
10176;BME280;18221;38.704;0.152;2023-03-19T07:24:08;99168.09;;;17.19;40.21
10176;BME280;18221;38.704;0.152;2023-03-19T07:26:37;99170.72;;;17.50;39.79
10176;BME280;18221;38.704;0.152;2023-03-19T07:29:09;99170.66;;;17.35;40.28
10176;BME280;18221;38.704;0.152;2023-03-19T07:31:39;99174.06;;;17.52;39.94
10176;BME280;18221;38.704;0.152;2023-03-19T07:34:08;99185.81;;;17.28;40.29
10176;BME280;18221;38.704;0.152;2023-03-19T07:36:37;99188.16;;;17.31;40.37
10176;BME280;18221;38.704;0.152;2023-03-19T07:39:06;99183.13;;;17.51;40.42
10176;BME280;18221;38.704;0.152;2023-03-19T07:41:34;99199.44;;;17.72;40.47
10176;BME280;18221;38.704;0.152;2023-03-19T07:44:05;99187.94;;;17.63;40.93
10176;BME280;18221;38.704;0.152;2023-03-19T07:46:34;99204.69;;;17.65;41.25
10176;BME280;18221;38.704;0.152;2023-03-19T07:49:04;99200.59;;;17.77;41.18
10176;BME280;18221;38.704;0.152;2023-03-19T07:51:33;99200.69;;;17.84;40.94
10176;BME280;18221;38.704;0.152;2023-03-19T07:54:02;99198.13;;;17.68;41.18
10176;BME280;18221;38.704;0.152;2023-03-19T07:56:31;99196.41;;;17.75;41.25
10176;BME280;18221;38.704;0.152;2023-03-19T07:59:00;99196.38;;;17.52;41.42
10176;BME280;18221;38.704;0.152;2023-03-19T08:01:28;99207.75;;;17.85;40.78
10176;BME280;18221;38.704;0.152;2023-03-19T08:03:57;99211.19;;;17.94;40.45
10176;BME280;18221;38.704;0.152;2023-03-19T08:06:28;99210.94;;;18.03;40.42
10176;BME280;18221;38.704;0.152;2023-03-19T08:08:56;99225.50;;;17.86;41.00
10176;BME280;18221;38.704;0.152;2023-03-19T08:11:25;99223.94;;;17.92;41.29
10176;BME280;18221;38.704;0.152;2023-03-19T08:13:55;99222.75;;;17.94;41.84
10176;BME280;18221;38.704;0.152;2023-03-19T08:16:24;99229.81;;;18.10;41.44
10176;BME280;18221;38.704;0.152;2023-03-19T08:18:52;99236.31;;;18.38;41.08
10176;BME280;18221;38.704;0.152;2023-03-19T08:21:20;99231.50;;;18.11;41.11
10176;BME280;18221;38.704;0.152;2023-03-19T08:23:51;99232.97;;;17.76;41.52
10176;BME280;18221;38.704;0.152;2023-03-19T08:26:20;99243.31;;;17.64;42.24
10176;BME280;18221;38.704;0.152;2023-03-19T08:28:48;99241.25;;;17.89;42.40
10176;BME280;18221;38.704;0.152;2023-03-19T08:31:18;99240.78;;;18.08;42.19
10176;BME280;18221;38.704;0.152;2023-03-19T08:33:46;99243.88;;;17.97;42.40
10176;BME280;18221;38.704;0.152;2023-03-19T08:36:18;99246.78;;;17.96;42.47
10176;BME280;18221;38.704;0.152;2023-03-19T08:38:46;99259.06;;;17.90;42.71
10176;BME280;18221;38.704;0.152;2023-03-19T08:41:22;99254.28;;;18.00;42.54
10176;BME280;18221;38.704;0.152;2023-03-19T08:43:50;99255.56;;;18.04;42.26
10176;BME280;18221;38.704;0.152;2023-03-19T08:46:19;99255.72;;;17.88;42.52
10176;BME280;18221;38.704;0.152;2023-03-19T08:48:49;99255.50;;;17.75;43.19
10176;BME280;18221;38.704;0.152;2023-03-19T08:51:18;99256.09;;;17.85;43.26
10176;BME280;18221;38.704;0.152;2023-03-19T08:53:47;99263.06;;;17.94;43.36
10176;BME280;18221;38.704;0.152;2023-03-19T08:56:16;99261.56;;;17.92;42.90
10176;BME280;18221;38.704;0.152;2023-03-19T08:58:46;99266.66;;;18.09;42.98
10176;BME280;18221;38.704;0.152;2023-03-19T09:01:15;99261.56;;;18.14;43.37
10176;BME280;18221;38.704;0.152;2023-03-19T09:03:44;99267.03;;;18.21;43.36
10176;BME280;18221;38.704;0.152;2023-03-19T09:06:13;99275.28;;;18.19;43.90
10176;BME280;18221;38.704;0.152;2023-03-19T09:08:42;99282.81;;;18.24;44.02
10176;BME280;18221;38.704;0.152;2023-03-19T09:11:11;99278.59;;;18.07;44.38
10176;BME280;18221;38.704;0.152;2023-03-19T09:13:40;99286.81;;;18.05;45.00
10176;BME280;18221;38.704;0.152;2023-03-19T09:16:10;99293.94;;;17.98;45.88
10176;BME280;18221;38.704;0.152;2023-03-19T09:18:38;99298.34;;;18.14;45.61
10176;BME280;18221;38.704;0.152;2023-03-19T09:21:07;99295.94;;;18.19;45.72
10176;BME280;18221;38.704;0.152;2023-03-19T09:23:35;99301.81;;;18.00;46.74
10176;BME280;18221;38.704;0.152;2023-03-19T09:26:05;99302.53;;;18.16;45.89
10176;BME280;18221;38.704;0.152;2023-03-19T09:28:34;99291.91;;;18.37;46.20
10176;BME280;18221;38.704;0.152;2023-03-19T09:31:07;99306.47;;;18.06;46.60
10176;BME280;18221;38.704;0.152;2023-03-19T09:33:38;99305.16;;;18.24;46.35
10176;BME280;18221;38.704;0.152;2023-03-19T09:36:07;99312.19;;;18.25;47.06
10176;BME280;18221;38.704;0.152;2023-03-19T09:38:36;99312.38;;;18.38;46.96
10176;BME280;18221;38.704;0.152;2023-03-19T09:41:12;99305.97;;;18.25;47.04
10176;BME280;18221;38.704;0.152;2023-03-19T09:43:58;99311.28;;;18.56;46.35
10176;BME280;18221;38.704;0.152;2023-03-19T09:46:38;99314.69;;;18.49;46.01
10176;BME280;18221;38.704;0.152;2023-03-19T09:49:21;99304.94;;;18.48;45.63
10176;BME280;18221;38.704;0.152;2023-03-19T09:51:55;99315.53;;;18.65;44.51
10176;BME280;18221;38.704;0.152;2023-03-19T09:54:30;99318.72;;;18.68;44.01
10176;BME280;18221;38.704;0.152;2023-03-19T09:57:00;99324.56;;;18.72;43.11
10176;BME280;18221;38.704;0.152;2023-03-19T09:59:29;99315.38;;;18.66;43.18
10176;BME280;18221;38.704;0.152;2023-03-19T10:02:23;99310.47;;;18.99;42.87
10176;BME280;18221;38.704;0.152;2023-03-19T10:05:08;99321.13;;;18.63;42.95
10176;BME280;18221;38.704;0.152;2023-03-19T10:08:06;99312.13;;;18.71;42.50
10176;BME280;18221;38.704;0.152;2023-03-19T10:10:56;99314.28;;;18.90;42.55
10176;BME280;18221;38.704;0.152;2023-03-19T10:13:55;99315.38;;;18.81;42.12
10176;BME280;18221;38.704;0.152;2023-03-19T10:16:28;99315.66;;;18.71;41.72
10176;BME280;18221;38.704;0.152;2023-03-19T10:19:02;99313.59;;;18.59;42.29
10176;BME280;18221;38.704;0.152;2023-03-19T10:21:37;99312.31;;;18.69;42.44
10176;BME280;18221;38.704;0.152;2023-03-19T10:24:28;99310.63;;;18.83;42.29
10176;BME280;18221;38.704;0.152;2023-03-19T10:27:06;99315.81;;;18.70;41.93
10176;BME280;18221;38.704;0.152;2023-03-19T10:29:37;99315.28;;;18.89;41.56
10176;BME280;18221;38.704;0.152;2023-03-19T10:32:16;99310.84;;;18.81;41.46
10176;BME280;18221;38.704;0.152;2023-03-19T10:34:47;99311.06;;;18.57;41.53
10176;BME280;18221;38.704;0.152;2023-03-19T10:37:20;99311.31;;;18.85;41.51
10176;BME280;18221;38.704;0.152;2023-03-19T10:39:52;99313.16;;;18.84;41.30
10176;BME280;18221;38.704;0.152;2023-03-19T10:42:45;99307.41;;;19.02;41.37
10176;BME280;18221;38.704;0.152;2023-03-19T10:45:27;99310.53;;;19.20;39.80
10176;BME280;18221;38.704;0.152;2023-03-19T10:47:58;99331.63;;;19.02;40.01
10176;BME280;18221;38.704;0.152;2023-03-19T10:50:31;99322.06;;;18.85;40.50
10176;BME280;18221;38.704;0.152;2023-03-19T10:53:26;99327.25;;;18.86;40.37
10176;BME280;18221;38.704;0.152;2023-03-19T10:56:02;99324.75;;;18.99;40.03
10176;BME280;18221;38.704;0.152;2023-03-19T10:58:34;99339.78;;;18.94;39.28
10176;BME280;18221;38.704;0.152;2023-03-19T11:01:06;99329.03;;;18.94;40.52
10176;BME280;18221;38.704;0.152;2023-03-19T11:03:36;99328.53;;;19.49;39.88
10176;BME280;18221;38.704;0.152;2023-03-19T11:06:17;99335.03;;;19.54;38.89
10176;BME280;18221;38.704;0.152;2023-03-19T11:08:55;99327.44;;;19.43;40.17
10176;BME280;18221;38.704;0.152;2023-03-19T11:11:33;99343.28;;;19.67;40.09
10176;BME280;18221;38.704;0.152;2023-03-19T11:14:08;99338.09;;;19.51;39.46
10176;BME280;18221;38.704;0.152;2023-03-19T11:16:56;99325.84;;;19.34;40.21
10176;BME280;18221;38.704;0.152;2023-03-19T11:19:28;99317.25;;;19.39;39.84
10176;BME280;18221;38.704;0.152;2023-03-19T11:22:14;99324.94;;;19.42;39.94
10176;BME280;18221;38.704;0.152;2023-03-19T11:24:54;99320.09;;;19.37;40.24
10176;BME280;18221;38.704;0.152;2023-03-19T11:27:32;99314.25;;;19.34;39.56
10176;BME280;18221;38.704;0.152;2023-03-19T11:30:03;99320.25;;;19.50;39.75
10176;BME280;18221;38.704;0.152;2023-03-19T11:33:11;99311.59;;;19.69;38.88
10176;BME280;18221;38.704;0.152;2023-03-19T11:35:51;99328.22;;;19.58;39.45
10176;BME280;18221;38.704;0.152;2023-03-19T11:38:29;99321.50;;;19.84;38.02
10176;BME280;18221;38.704;0.152;2023-03-19T11:41:13;99320.47;;;19.49;38.88
10176;BME280;18221;38.704;0.152;2023-03-19T11:43:58;99328.81;;;19.54;38.93
10176;BME280;18221;38.704;0.152;2023-03-19T11:46:48;99330.56;;;19.32;38.96
10176;BME280;18221;38.704;0.152;2023-03-19T11:49:41;99328.72;;;19.33;39.58
10176;BME280;18221;38.704;0.152;2023-03-19T11:52:22;99326.16;;;19.39;39.41
10176;BME280;18221;38.704;0.152;2023-03-19T11:55:10;99334.78;;;19.49;38.41
10176;BME280;18221;38.704;0.152;2023-03-19T11:58:13;99323.22;;;19.55;39.03
10176;BME280;18221;38.704;0.152;2023-03-19T12:00:48;99304.94;;;19.36;38.21
10176;BME280;18221;38.704;0.152;2023-03-19T12:03:48;99315.72;;;19.51;37.95
10176;BME280;18221;38.704;0.152;2023-03-19T12:06:35;99313.13;;;19.57;37.96
10176;BME280;18221;38.704;0.152;2023-03-19T12:09:18;99315.34;;;19.54;37.91
10176;BME280;18221;38.704;0.152;2023-03-19T12:11:53;99309.78;;;19.77;38.34
10176;BME280;18221;38.704;0.152;2023-03-19T12:14:42;99314.03;;;19.86;37.17
10176;BME280;18221;38.704;0.152;2023-03-19T12:17:28;99326.13;;;19.54;38.13
10176;BME280;18221;38.704;0.152;2023-03-19T12:20:30;99316.63;;;19.58;37.39
10176;BME280;18221;38.704;0.152;2023-03-19T12:23:16;99315.13;;;19.55;37.14
10176;BME280;18221;38.704;0.152;2023-03-19T12:26:02;99318.00;;;19.68;36.75
10176;BME280;18221;38.704;0.152;2023-03-19T12:28:35;99316.56;;;19.51;36.57
10176;BME280;18221;38.704;0.152;2023-03-19T12:31:33;99318.00;;;19.68;36.42
10176;BME280;18221;38.704;0.152;2023-03-19T12:34:22;99320.50;;;19.70;36.97
10176;BME280;18221;38.704;0.152;2023-03-19T12:37:11;99302.50;;;19.92;36.69
10176;BME280;18221;38.704;0.152;2023-03-19T12:39:51;99299.16;;;19.90;36.26
10176;BME280;18221;38.704;0.152;2023-03-19T12:42:25;99295.69;;;19.96;34.96
10176;BME280;18221;38.704;0.152;2023-03-19T12:45:00;99298.84;;;19.99;35.11
10176;BME280;18221;38.704;0.152;2023-03-19T12:47:37;99298.50;;;20.09;34.64
10176;BME280;18221;38.704;0.152;2023-03-19T12:50:14;99297.09;;;20.13;36.60
10176;BME280;18221;38.704;0.152;2023-03-19T12:52:49;99297.28;;;20.11;36.85
10176;BME280;18221;38.704;0.152;2023-03-19T12:55:22;99293.25;;;20.22;36.37
10176;BME280;18221;38.704;0.152;2023-03-19T12:57:58;99306.72;;;20.22;36.05
10176;BME280;18221;38.704;0.152;2023-03-19T13:00:33;99295.56;;;20.04;35.59
10176;BME280;18221;38.704;0.152;2023-03-19T13:03:12;99289.41;;;20.10;37.28
10176;BME280;18221;38.704;0.152;2023-03-19T13:05:51;99293.44;;;20.20;37.02
10176;BME280;18221;38.704;0.152;2023-03-19T13:08:29;99287.72;;;20.51;35.98
10176;BME280;18221;38.704;0.152;2023-03-19T13:11:05;99282.63;;;20.42;36.34
10176;BME280;18221;38.704;0.152;2023-03-19T13:13:46;99269.88;;;20.29;35.79
10176;BME280;18221;38.704;0.152;2023-03-19T13:16:33;99277.38;;;20.33;36.32
10176;BME280;18221;38.704;0.152;2023-03-19T13:19:20;99276.44;;;20.41;35.45
10176;BME280;18221;38.704;0.152;2023-03-19T13:21:55;99268.75;;;20.45;35.38
10176;BME280;18221;38.704;0.152;2023-03-19T13:24:28;99266.16;;;20.30;34.39
10176;BME280;18221;38.704;0.152;2023-03-19T13:27:00;99272.41;;;20.58;34.00
10176;BME280;18221;38.704;0.152;2023-03-19T13:29:30;99274.88;;;20.60;34.64